sensor_id;sensor_type;location;lat;lon;timestamp;temperature;humidity
38902;DHT22;24661;53.566;9.910;2023-09-19T00:01:53;17.10;99.90
38902;DHT22;24661;53.566;9.910;2023-09-19T00:04:18;17.10;99.90
38902;DHT22;24661;53.566;9.910;2023-09-19T00:06:48;17.00;99.90
38902;DHT22;24661;53.566;9.910;2023-09-19T00:09:15;17.00;99.90
38902;DHT22;24661;53.566;9.910;2023-09-19T00:11:41;17.00;99.90
38902;DHT22;24661;53.566;9.910;2023-09-19T00:14:06;17.00;99.90
38902;DHT22;24661;53.566;9.910;2023-09-19T00:16:34;17.00;99.90
38902;DHT22;24661;53.566;9.910;2023-09-19T00:18:59;17.00;99.90
38902;DHT22;24661;53.566;9.910;2023-09-19T00:21:31;17.00;99.90
38902;DHT22;24661;53.566;9.910;2023-09-19T00:23:57;17.00;99.90
38902;DHT22;24661;53.566;9.910;2023-09-19T00:26:23;17.00;99.90
38902;DHT22;24661;53.566;9.910;2023-09-19T00:28:52;16.90;99.90
38902;DHT22;24661;53.566;9.910;2023-09-19T00:31:18;17.00;99.90
38902;DHT22;24661;53.566;9.910;2023-09-19T00:33:43;16.90;99.90
38902;DHT22;24661;53.566;9.910;2023-09-19T00:36:09;17.00;99.90
38902;DHT22;24661;53.566;9.910;2023-09-19T00:38:34;17.00;99.90
38902;DHT22;24661;53.566;9.910;2023-09-19T00:41:00;17.00;99.90
38902;DHT22;24661;53.566;9.910;2023-09-19T00:43:25;17.00;99.90
38902;DHT22;24661;53.566;9.910;2023-09-19T00:45:54;16.90;99.90
38902;DHT22;24661;53.566;9.910;2023-09-19T00:48:21;16.90;99.90
38902;DHT22;24661;53.566;9.910;2023-09-19T00:50:47;16.90;99.90
38902;DHT22;24661;53.566;9.910;2023-09-19T00:53:17;16.90;99.90
38902;DHT22;24661;53.566;9.910;2023-09-19T00:55:44;16.90;99.90
38902;DHT22;24661;53.566;9.910;2023-09-19T00:58:11;16.90;99.90
38902;DHT22;24661;53.566;9.910;2023-09-19T01:00:37;16.90;99.90
38902;DHT22;24661;53.566;9.910;2023-09-19T01:03:03;16.90;99.90
38902;DHT22;24661;53.566;9.910;2023-09-19T01:05:30;16.80;99.90
38902;DHT22;24661;53.566;9.910;2023-09-19T01:07:55;16.90;99.90
38902;DHT22;24661;53.566;9.910;2023-09-19T01:10:22;16.90;99.90
38902;DHT22;24661;53.566;9.910;2023-09-19T01:21:15;16.80;99.90
38902;DHT22;24661;53.566;9.910;2023-09-19T01:32:06;16.80;99.90
38902;DHT22;24661;53.566;9.910;2023-09-19T01:34:44;16.80;99.90
38902;DHT22;24661;53.566;9.910;2023-09-19T01:37:12;16.80;99.90
38902;DHT22;24661;53.566;9.910;2023-09-19T01:39:39;16.80;99.90
38902;DHT22;24661;53.566;9.910;2023-09-19T01:42:24;16.80;99.90
38902;DHT22;24661;53.566;9.910;2023-09-19T01:47:49;16.80;99.90
38902;DHT22;24661;53.566;9.910;2023-09-19T01:50:38;16.80;99.90
38902;DHT22;24661;53.566;9.910;2023-09-19T01:53:14;16.70;99.90
38902;DHT22;24661;53.566;9.910;2023-09-19T01:55:46;16.70;99.90
38902;DHT22;24661;53.566;9.910;2023-09-19T02:00:46;16.60;99.90
38902;DHT22;24661;53.566;9.910;2023-09-19T02:03:13;16.50;99.90
38902;DHT22;24661;53.566;9.910;2023-09-19T02:05:40;16.50;99.90
38902;DHT22;24661;53.566;9.910;2023-09-19T02:08:05;16.40;99.90
38902;DHT22;24661;53.566;9.910;2023-09-19T02:10:32;16.40;99.90
38902;DHT22;24661;53.566;9.910;2023-09-19T02:12:57;16.30;99.90
38902;DHT22;24661;53.566;9.910;2023-09-19T02:15:24;16.30;99.90
38902;DHT22;24661;53.566;9.910;2023-09-19T02:17:49;16.20;99.90
38902;DHT22;24661;53.566;9.910;2023-09-19T02:20:15;16.20;99.90
38902;DHT22;24661;53.566;9.910;2023-09-19T02:22:42;16.20;99.90
38902;DHT22;24661;53.566;9.910;2023-09-19T02:25:08;16.10;99.90
38902;DHT22;24661;53.566;9.910;2023-09-19T02:27:34;16.10;99.90
38902;DHT22;24661;53.566;9.910;2023-09-19T02:29:59;16.10;99.90
38902;DHT22;24661;53.566;9.910;2023-09-19T02:32:29;16.10;99.90
38902;DHT22;24661;53.566;9.910;2023-09-19T02:34:56;16.00;99.90
38902;DHT22;24661;53.566;9.910;2023-09-19T02:37:23;16.00;99.90
38902;DHT22;24661;53.566;9.910;2023-09-19T02:39:48;16.00;99.90
38902;DHT22;24661;53.566;9.910;2023-09-19T02:42:14;16.00;99.90
38902;DHT22;24661;53.566;9.910;2023-09-19T02:44:40;16.00;99.90
38902;DHT22;24661;53.566;9.910;2023-09-19T02:47:06;16.00;99.90
38902;DHT22;24661;53.566;9.910;2023-09-19T02:49:31;16.00;99.90
38902;DHT22;24661;53.566;9.910;2023-09-19T02:51:58;16.00;99.90
38902;DHT22;24661;53.566;9.910;2023-09-19T02:54:24;16.00;99.90
38902;DHT22;24661;53.566;9.910;2023-09-19T02:56:50;16.00;99.90
38902;DHT22;24661;53.566;9.910;2023-09-19T02:59:16;16.10;99.90
38902;DHT22;24661;53.566;9.910;2023-09-19T03:01:45;16.10;99.90
38902;DHT22;24661;53.566;9.910;2023-09-19T03:04:13;16.10;99.90
38902;DHT22;24661;53.566;9.910;2023-09-19T03:06:39;16.20;99.90
38902;DHT22;24661;53.566;9.910;2023-09-19T03:09:05;16.20;99.90
38902;DHT22;24661;53.566;9.910;2023-09-19T03:11:38;16.20;99.90
38902;DHT22;24661;53.566;9.910;2023-09-19T03:14:05;16.20;99.90
38902;DHT22;24661;53.566;9.910;2023-09-19T03:16:31;16.20;99.90
38902;DHT22;24661;53.566;9.910;2023-09-19T03:18:57;16.20;99.90
38902;DHT22;24661;53.566;9.910;2023-09-19T03:21:23;16.20;99.90
38902;DHT22;24661;53.566;9.910;2023-09-19T03:23:51;16.20;99.90
38902;DHT22;24661;53.566;9.910;2023-09-19T03:26:16;16.20;99.90
38902;DHT22;24661;53.566;9.910;2023-09-19T03:28:42;16.20;99.90
38902;DHT22;24661;53.566;9.910;2023-09-19T03:31:09;16.20;99.90
38902;DHT22;24661;53.566;9.910;2023-09-19T03:33:35;16.20;99.90
38902;DHT22;24661;53.566;9.910;2023-09-19T03:36:02;16.20;99.90
38902;DHT22;24661;53.566;9.910;2023-09-19T03:38:30;16.20;99.90
38902;DHT22;24661;53.566;9.910;2023-09-19T03:40:55;16.10;99.90
38902;DHT22;24661;53.566;9.910;2023-09-19T03:43:21;16.10;99.90
38902;DHT22;24661;53.566;9.910;2023-09-19T03:45:47;16.10;99.90
38902;DHT22;24661;53.566;9.910;2023-09-19T03:48:12;16.00;99.90
38902;DHT22;24661;53.566;9.910;2023-09-19T03:50:38;16.00;99.90
38902;DHT22;24661;53.566;9.910;2023-09-19T03:53:04;15.90;99.90
38902;DHT22;24661;53.566;9.910;2023-09-19T03:55:30;15.80;99.90
38902;DHT22;24661;53.566;9.910;2023-09-19T03:57:56;15.80;99.90
38902;DHT22;24661;53.566;9.910;2023-09-19T04:00:22;15.70;99.90
38902;DHT22;24661;53.566;9.910;2023-09-19T04:02:52;15.70;99.90
38902;DHT22;24661;53.566;9.910;2023-09-19T04:05:17;15.60;99.90
38902;DHT22;24661;53.566;9.910;2023-09-19T04:07:43;15.60;99.90
38902;DHT22;24661;53.566;9.910;2023-09-19T04:10:09;15.50;99.90
38902;DHT22;24661;53.566;9.910;2023-09-19T04:12:37;15.40;99.90
38902;DHT22;24661;53.566;9.910;2023-09-19T04:15:05;15.40;99.90
38902;DHT22;24661;53.566;9.910;2023-09-19T04:17:30;15.30;99.90
38902;DHT22;24661;53.566;9.910;2023-09-19T04:19:58;15.30;99.90
38902;DHT22;24661;53.566;9.910;2023-09-19T04:22:24;15.20;99.90
38902;DHT22;24661;53.566;9.910;2023-09-19T04:24:49;15.20;99.90
38902;DHT22;24661;53.566;9.910;2023-09-19T04:27:15;15.20;99.90
38902;DHT22;24661;53.566;9.910;2023-09-19T04:29:41;15.10;99.90
38902;DHT22;24661;53.566;9.910;2023-09-19T04:32:09;15.10;99.90
38902;DHT22;24661;53.566;9.910;2023-09-19T04:34:35;15.00;99.90
38902;DHT22;24661;53.566;9.910;2023-09-19T04:37:01;15.00;99.90
38902;DHT22;24661;53.566;9.910;2023-09-19T04:39:27;15.00;99.90
38902;DHT22;24661;53.566;9.910;2023-09-19T04:41:54;14.90;99.90
38902;DHT22;24661;53.566;9.910;2023-09-19T04:44:20;14.90;99.90
38902;DHT22;24661;53.566;9.910;2023-09-19T04:46:46;14.90;99.90
38902;DHT22;24661;53.566;9.910;2023-09-19T04:49:12;14.80;99.90
38902;DHT22;24661;53.566;9.910;2023-09-19T04:51:38;14.80;99.90
38902;DHT22;24661;53.566;9.910;2023-09-19T04:54:04;14.80;99.90
38902;DHT22;24661;53.566;9.910;2023-09-19T04:56:29;14.80;99.90
38902;DHT22;24661;53.566;9.910;2023-09-19T04:58:56;14.80;99.90
38902;DHT22;24661;53.566;9.910;2023-09-19T05:01:23;14.70;99.90
38902;DHT22;24661;53.566;9.910;2023-09-19T05:03:49;14.60;99.90
38902;DHT22;24661;53.566;9.910;2023-09-19T05:06:21;14.60;99.90
38902;DHT22;24661;53.566;9.910;2023-09-19T05:08:50;14.60;99.90
38902;DHT22;24661;53.566;9.910;2023-09-19T05:11:20;14.60;99.90
38902;DHT22;24661;53.566;9.910;2023-09-19T05:13:50;14.60;99.90
38902;DHT22;24661;53.566;9.910;2023-09-19T05:16:16;14.50;99.90
38902;DHT22;24661;53.566;9.910;2023-09-19T05:18:42;14.50;99.90
38902;DHT22;24661;53.566;9.910;2023-09-19T05:21:07;14.50;99.90
38902;DHT22;24661;53.566;9.910;2023-09-19T05:23:33;14.50;99.90
38902;DHT22;24661;53.566;9.910;2023-09-19T05:25:59;14.40;99.90
38902;DHT22;24661;53.566;9.910;2023-09-19T05:28:25;14.40;99.90
38902;DHT22;24661;53.566;9.910;2023-09-19T05:30:52;14.40;99.90
38902;DHT22;24661;53.566;9.910;2023-09-19T05:33:18;14.40;99.90
38902;DHT22;24661;53.566;9.910;2023-09-19T05:35:45;14.30;99.90
38902;DHT22;24661;53.566;9.910;2023-09-19T05:38:13;14.30;99.90
38902;DHT22;24661;53.566;9.910;2023-09-19T05:40:39;14.30;99.90
38902;DHT22;24661;53.566;9.910;2023-09-19T05:43:08;14.30;99.90
38902;DHT22;24661;53.566;9.910;2023-09-19T05:45:34;14.30;99.90
38902;DHT22;24661;53.566;9.910;2023-09-19T05:48:08;14.30;99.90
38902;DHT22;24661;53.566;9.910;2023-09-19T05:50:34;14.40;99.90
38902;DHT22;24661;53.566;9.910;2023-09-19T05:52:59;14.40;99.90
38902;DHT22;24661;53.566;9.910;2023-09-19T05:55:25;14.40;99.90
38902;DHT22;24661;53.566;9.910;2023-09-19T05:57:51;14.40;99.90
38902;DHT22;24661;53.566;9.910;2023-09-19T06:00:21;14.40;99.90
38902;DHT22;24661;53.566;9.910;2023-09-19T06:02:54;14.50;99.90
38902;DHT22;24661;53.566;9.910;2023-09-19T06:05:21;14.60;99.90
38902;DHT22;24661;53.566;9.910;2023-09-19T06:07:47;14.70;99.90
38902;DHT22;24661;53.566;9.910;2023-09-19T06:10:13;14.80;99.90
38902;DHT22;24661;53.566;9.910;2023-09-19T06:12:40;14.80;99.90
38902;DHT22;24661;53.566;9.910;2023-09-19T06:15:06;14.90;99.90
38902;DHT22;24661;53.566;9.910;2023-09-19T06:17:34;15.00;99.90
38902;DHT22;24661;53.566;9.910;2023-09-19T06:20:07;15.10;99.90
38902;DHT22;24661;53.566;9.910;2023-09-19T06:22:42;15.20;99.90
38902;DHT22;24661;53.566;9.910;2023-09-19T06:25:09;15.20;99.90
38902;DHT22;24661;53.566;9.910;2023-09-19T06:27:40;15.30;99.90
38902;DHT22;24661;53.566;9.910;2023-09-19T06:30:10;15.30;99.90
38902;DHT22;24661;53.566;9.910;2023-09-19T06:32:37;15.30;99.90
38902;DHT22;24661;53.566;9.910;2023-09-19T06:35:02;15.30;99.90
38902;DHT22;24661;53.566;9.910;2023-09-19T06:37:29;15.40;99.90
38902;DHT22;24661;53.566;9.910;2023-09-19T06:39:54;15.50;99.90
38902;DHT22;24661;53.566;9.910;2023-09-19T06:42:20;15.50;99.90
38902;DHT22;24661;53.566;9.910;2023-09-19T06:44:48;15.50;99.90
38902;DHT22;24661;53.566;9.910;2023-09-19T06:47:14;15.50;99.90
38902;DHT22;24661;53.566;9.910;2023-09-19T06:49:41;15.50;99.90
38902;DHT22;24661;53.566;9.910;2023-09-19T06:52:09;15.50;99.90
38902;DHT22;24661;53.566;9.910;2023-09-19T06:54:35;15.50;99.90
38902;DHT22;24661;53.566;9.910;2023-09-19T06:57:01;15.60;99.90
38902;DHT22;24661;53.566;9.910;2023-09-19T06:59:27;15.60;99.90
38902;DHT22;24661;53.566;9.910;2023-09-19T07:01:53;15.60;99.90
38902;DHT22;24661;53.566;9.910;2023-09-19T07:04:18;15.70;99.90
38902;DHT22;24661;53.566;9.910;2023-09-19T07:06:49;15.70;99.90
38902;DHT22;24661;53.566;9.910;2023-09-19T07:09:18;15.70;99.90
38902;DHT22;24661;53.566;9.910;2023-09-19T07:11:47;15.70;99.90
38902;DHT22;24661;53.566;9.910;2023-09-19T07:14:13;15.70;99.90
38902;DHT22;24661;53.566;9.910;2023-09-19T07:16:39;15.80;99.90
38902;DHT22;24661;53.566;9.910;2023-09-19T07:19:07;15.90;99.90
38902;DHT22;24661;53.566;9.910;2023-09-19T07:21:33;15.90;99.90
38902;DHT22;24661;53.566;9.910;2023-09-19T07:24:00;16.00;99.90
38902;DHT22;24661;53.566;9.910;2023-09-19T07:26:26;16.00;99.90
38902;DHT22;24661;53.566;9.910;2023-09-19T07:28:53;16.00;99.90
38902;DHT22;24661;53.566;9.910;2023-09-19T07:31:19;16.00;99.90
38902;DHT22;24661;53.566;9.910;2023-09-19T07:33:44;16.10;99.90
38902;DHT22;24661;53.566;9.910;2023-09-19T07:36:11;16.20;99.90
38902;DHT22;24661;53.566;9.910;2023-09-19T07:38:39;16.10;99.90
38902;DHT22;24661;53.566;9.910;2023-09-19T07:41:05;16.10;99.90
38902;DHT22;24661;53.566;9.910;2023-09-19T07:43:31;16.00;99.90
38902;DHT22;24661;53.566;9.910;2023-09-19T07:45:57;16.00;99.90
38902;DHT22;24661;53.566;9.910;2023-09-19T07:48:22;16.00;99.90
38902;DHT22;24661;53.566;9.910;2023-09-19T07:50:49;15.90;99.90
38902;DHT22;24661;53.566;9.910;2023-09-19T07:53:15;15.80;99.90
38902;DHT22;24661;53.566;9.910;2023-09-19T07:55:45;15.70;99.90
38902;DHT22;24661;53.566;9.910;2023-09-19T07:58:13;15.50;99.90
38902;DHT22;24661;53.566;9.910;2023-09-19T08:00:41;15.30;99.90
38902;DHT22;24661;53.566;9.910;2023-09-19T08:03:07;14.90;99.90
38902;DHT22;24661;53.566;9.910;2023-09-19T08:05:34;14.70;99.90
38902;DHT22;24661;53.566;9.910;2023-09-19T08:07:59;14.70;99.90
38902;DHT22;24661;53.566;9.910;2023-09-19T08:10:25;14.60;99.90
38902;DHT22;24661;53.566;9.910;2023-09-19T08:12:53;14.70;99.90
38902;DHT22;24661;53.566;9.910;2023-09-19T08:15:23;14.70;99.90
38902;DHT22;24661;53.566;9.910;2023-09-19T08:17:49;14.70;99.90
38902;DHT22;24661;53.566;9.910;2023-09-19T08:20:15;14.80;99.90
38902;DHT22;24661;53.566;9.910;2023-09-19T08:22:51;14.80;99.90
38902;DHT22;24661;53.566;9.910;2023-09-19T08:25:23;14.90;99.90
38902;DHT22;24661;53.566;9.910;2023-09-19T08:27:49;15.10;99.90
38902;DHT22;24661;53.566;9.910;2023-09-19T08:30:24;15.10;99.90
38902;DHT22;24661;53.566;9.910;2023-09-19T08:32:50;15.20;99.90
38902;DHT22;24661;53.566;9.910;2023-09-19T08:35:16;15.30;99.90
38902;DHT22;24661;53.566;9.910;2023-09-19T08:37:42;15.40;99.90
38902;DHT22;24661;53.566;9.910;2023-09-19T08:40:11;15.40;99.90
38902;DHT22;24661;53.566;9.910;2023-09-19T08:42:54;15.50;99.90
38902;DHT22;24661;53.566;9.910;2023-09-19T08:45:21;15.50;99.90
38902;DHT22;24661;53.566;9.910;2023-09-19T08:50:43;15.60;99.90
38902;DHT22;24661;53.566;9.910;2023-09-19T08:53:25;15.70;99.90
38902;DHT22;24661;53.566;9.910;2023-09-19T08:55:52;15.70;99.90
38902;DHT22;24661;53.566;9.910;2023-09-19T08:58:21;15.80;99.90
38902;DHT22;24661;53.566;9.910;2023-09-19T09:00:54;15.90;99.90
38902;DHT22;24661;53.566;9.910;2023-09-19T09:03:21;15.90;99.90
38902;DHT22;24661;53.566;9.910;2023-09-19T09:05:48;16.00;99.90
38902;DHT22;24661;53.566;9.910;2023-09-19T09:08:16;16.10;99.90
38902;DHT22;24661;53.566;9.910;2023-09-19T09:10:44;16.20;99.90
38902;DHT22;24661;53.566;9.910;2023-09-19T09:13:09;16.30;99.90
38902;DHT22;24661;53.566;9.910;2023-09-19T09:15:38;16.30;99.90
38902;DHT22;24661;53.566;9.910;2023-09-19T09:18:05;16.30;99.90
38902;DHT22;24661;53.566;9.910;2023-09-19T09:20:30;16.40;99.90
38902;DHT22;24661;53.566;9.910;2023-09-19T09:22:57;16.50;99.90
38902;DHT22;24661;53.566;9.910;2023-09-19T09:25:52;16.50;99.90
38902;DHT22;24661;53.566;9.910;2023-09-19T09:28:24;16.60;99.90
38902;DHT22;24661;53.566;9.910;2023-09-19T09:30:50;16.70;99.90
38902;DHT22;24661;53.566;9.910;2023-09-19T09:33:16;16.70;99.90
38902;DHT22;24661;53.566;9.910;2023-09-19T09:38:21;16.90;99.90
38902;DHT22;24661;53.566;9.910;2023-09-19T09:40:51;17.00;99.90
38902;DHT22;24661;53.566;9.910;2023-09-19T09:43:30;17.00;99.90
38902;DHT22;24661;53.566;9.910;2023-09-19T09:46:16;17.00;99.90
38902;DHT22;24661;53.566;9.910;2023-09-19T09:51:34;17.40;99.90
38902;DHT22;24661;53.566;9.910;2023-09-19T09:54:16;17.40;99.90
38902;DHT22;24661;53.566;9.910;2023-09-19T09:56:58;17.50;99.90
38902;DHT22;24661;53.566;9.910;2023-09-19T09:59:44;17.60;99.90
38902;DHT22;24661;53.566;9.910;2023-09-19T10:02:25;17.60;99.90
38902;DHT22;24661;53.566;9.910;2023-09-19T10:04:55;17.60;99.90
38902;DHT22;24661;53.566;9.910;2023-09-19T10:07:39;17.70;99.90
38902;DHT22;24661;53.566;9.910;2023-09-19T10:10:08;17.80;99.90
38902;DHT22;24661;53.566;9.910;2023-09-19T10:12:55;17.80;99.90
38902;DHT22;24661;53.566;9.910;2023-09-19T10:15:32;17.90;99.90
38902;DHT22;24661;53.566;9.910;2023-09-19T10:18:00;17.90;99.90
38902;DHT22;24661;53.566;9.910;2023-09-19T10:20:28;18.00;99.90
38902;DHT22;24661;53.566;9.910;2023-09-19T10:23:03;18.10;99.90
38902;DHT22;24661;53.566;9.910;2023-09-19T10:25:37;18.10;99.90
38902;DHT22;24661;53.566;9.910;2023-09-19T10:28:06;18.10;99.90
38902;DHT22;24661;53.566;9.910;2023-09-19T10:30:37;18.10;99.90
38902;DHT22;24661;53.566;9.910;2023-09-19T10:33:04;18.20;99.90
38902;DHT22;24661;53.566;9.910;2023-09-19T10:35:33;19.20;99.90
38902;DHT22;24661;53.566;9.910;2023-09-19T10:38:04;18.30;99.90
38902;DHT22;24661;53.566;9.910;2023-09-19T10:40:33;18.30;99.90
38902;DHT22;24661;53.566;9.910;2023-09-19T10:43:05;18.20;99.90
38902;DHT22;24661;53.566;9.910;2023-09-19T10:45:35;18.30;99.90
38902;DHT22;24661;53.566;9.910;2023-09-19T10:48:01;18.30;99.90
38902;DHT22;24661;53.566;9.910;2023-09-19T10:50:40;18.20;99.90
38902;DHT22;24661;53.566;9.910;2023-09-19T10:53:07;18.30;99.90
38902;DHT22;24661;53.566;9.910;2023-09-19T10:55:36;19.30;99.90
38902;DHT22;24661;53.566;9.910;2023-09-19T10:58:02;18.30;99.90
38902;DHT22;24661;53.566;9.910;2023-09-19T11:00:55;18.40;99.90
38902;DHT22;24661;53.566;9.910;2023-09-19T11:03:22;18.40;99.90
38902;DHT22;24661;53.566;9.910;2023-09-19T11:06:11;18.40;99.90
38902;DHT22;24661;53.566;9.910;2023-09-19T11:08:52;18.40;99.90
38902;DHT22;24661;53.566;9.910;2023-09-19T11:14:15;18.40;99.90
38902;DHT22;24661;53.566;9.910;2023-09-19T11:30:52;18.40;99.90
38902;DHT22;24661;53.566;9.910;2023-09-19T11:33:29;18.40;99.90
38902;DHT22;24661;53.566;9.910;2023-09-19T11:36:07;18.40;99.90
38902;DHT22;24661;53.566;9.910;2023-09-19T11:43:53;18.60;99.90
38902;DHT22;24661;53.566;9.910;2023-09-19T11:46:24;18.40;99.90
38902;DHT22;24661;53.566;9.910;2023-09-19T11:48:51;18.50;99.90
38902;DHT22;24661;53.566;9.910;2023-09-19T11:51:18;18.50;99.90
38902;DHT22;24661;53.566;9.910;2023-09-19T11:53:46;18.60;99.90
38902;DHT22;24661;53.566;9.910;2023-09-19T11:56:22;18.80;99.90
38902;DHT22;24661;53.566;9.910;2023-09-19T11:58:50;18.80;99.90
38902;DHT22;24661;53.566;9.910;2023-09-19T12:01:32;18.80;99.90
38902;DHT22;24661;53.566;9.910;2023-09-19T12:04:02;18.80;99.90
38902;DHT22;24661;53.566;9.910;2023-09-19T12:06:30;18.80;99.90
38902;DHT22;24661;53.566;9.910;2023-09-19T12:08:57;18.90;99.90
38902;DHT22;24661;53.566;9.910;2023-09-19T12:11:29;18.90;99.90
38902;DHT22;24661;53.566;9.910;2023-09-19T12:13:59;18.90;99.90
38902;DHT22;24661;53.566;9.910;2023-09-19T12:16:26;19.00;99.90
38902;DHT22;24661;53.566;9.910;2023-09-19T12:18:56;19.10;99.90
38902;DHT22;24661;53.566;9.910;2023-09-19T12:21:31;19.10;99.90
38902;DHT22;24661;53.566;9.910;2023-09-19T12:24:17;18.90;99.90
38902;DHT22;24661;53.566;9.910;2023-09-19T12:26:46;18.90;99.90
38902;DHT22;24661;53.566;9.910;2023-09-19T12:29:20;18.90;99.90
38902;DHT22;24661;53.566;9.910;2023-09-19T12:31:58;19.10;99.90
38902;DHT22;24661;53.566;9.910;2023-09-19T12:34:28;19.10;99.90
38902;DHT22;24661;53.566;9.910;2023-09-19T12:39:41;19.20;99.90
38902;DHT22;24661;53.566;9.910;2023-09-19T12:42:11;19.30;99.90
38902;DHT22;24661;53.566;9.910;2023-09-19T12:44:44;19.40;99.90
38902;DHT22;24661;53.566;9.910;2023-09-19T12:47:17;19.40;99.90
38902;DHT22;24661;53.566;9.910;2023-09-19T12:50:14;19.40;99.90
38902;DHT22;24661;53.566;9.910;2023-09-19T12:55:26;19.40;99.90
38902;DHT22;24661;53.566;9.910;2023-09-19T12:58:16;19.50;99.90
38902;DHT22;24661;53.566;9.910;2023-09-19T13:00:45;19.40;99.90
38902;DHT22;24661;53.566;9.910;2023-09-19T13:05:54;19.40;99.90
38902;DHT22;24661;53.566;9.910;2023-09-19T13:08:28;19.50;99.90
38902;DHT22;24661;53.566;9.910;2023-09-19T13:11:06;19.40;99.90
38902;DHT22;24661;53.566;9.910;2023-09-19T13:13:35;19.40;99.90
38902;DHT22;24661;53.566;9.910;2023-09-19T13:16:02;19.50;99.90
38902;DHT22;24661;53.566;9.910;2023-09-19T13:18:28;19.60;99.90
38902;DHT22;24661;53.566;9.910;2023-09-19T13:21:13;20.00;99.90
38902;DHT22;24661;53.566;9.910;2023-09-19T13:23:54;20.80;99.90
38902;DHT22;24661;53.566;9.910;2023-09-19T13:26:27;20.70;99.90
38902;DHT22;24661;53.566;9.910;2023-09-19T13:28:54;20.90;99.90
38902;DHT22;24661;53.566;9.910;2023-09-19T13:31:20;21.50;99.90
38902;DHT22;24661;53.566;9.910;2023-09-19T13:33:47;21.30;99.90
38902;DHT22;24661;53.566;9.910;2023-09-19T13:36:13;21.10;99.90
38902;DHT22;24661;53.566;9.910;2023-09-19T13:38:42;20.90;99.90
38902;DHT22;24661;53.566;9.910;2023-09-19T13:41:11;20.90;99.90
38902;DHT22;24661;53.566;9.910;2023-09-19T13:43:37;20.70;99.90
38902;DHT22;24661;53.566;9.910;2023-09-19T13:46:05;20.60;99.90
38902;DHT22;24661;53.566;9.910;2023-09-19T13:48:33;22.00;99.90
38902;DHT22;24661;53.566;9.910;2023-09-19T13:51:01;22.30;99.90
38902;DHT22;24661;53.566;9.910;2023-09-19T13:53:27;21.90;99.90
38902;DHT22;24661;53.566;9.910;2023-09-19T13:55:53;21.40;99.90
38902;DHT22;24661;53.566;9.910;2023-09-19T13:58:18;21.10;99.90
38902;DHT22;24661;53.566;9.910;2023-09-19T14:00:44;20.90;99.90
38902;DHT22;24661;53.566;9.910;2023-09-19T14:03:09;20.70;99.90
38902;DHT22;24661;53.566;9.910;2023-09-19T14:05:36;20.40;99.90
38902;DHT22;24661;53.566;9.910;2023-09-19T14:08:03;20.30;99.90
38902;DHT22;24661;53.566;9.910;2023-09-19T14:10:29;20.10;99.90
38902;DHT22;24661;53.566;9.910;2023-09-19T14:12:57;20.00;99.90
38902;DHT22;24661;53.566;9.910;2023-09-19T14:15:23;19.80;99.90
38902;DHT22;24661;53.566;9.910;2023-09-19T14:17:58;19.90;99.90
38902;DHT22;24661;53.566;9.910;2023-09-19T14:20:24;20.00;99.90
38902;DHT22;24661;53.566;9.910;2023-09-19T14:22:52;19.80;99.90
38902;DHT22;24661;53.566;9.910;2023-09-19T14:25:18;21.30;99.90
38902;DHT22;24661;53.566;9.910;2023-09-19T14:27:43;19.90;99.90
38902;DHT22;24661;53.566;9.910;2023-09-19T14:30:09;19.80;99.90
38902;DHT22;24661;53.566;9.910;2023-09-19T14:32:35;19.80;99.90
38902;DHT22;24661;53.566;9.910;2023-09-19T14:35:02;19.80;99.90
38902;DHT22;24661;53.566;9.910;2023-09-19T14:37:28;19.80;99.90
38902;DHT22;24661;53.566;9.910;2023-09-19T14:39:54;19.90;99.90
38902;DHT22;24661;53.566;9.910;2023-09-19T14:42:20;19.80;99.90
38902;DHT22;24661;53.566;9.910;2023-09-19T14:44:45;19.80;99.90
38902;DHT22;24661;53.566;9.910;2023-09-19T14:47:12;19.70;99.90
38902;DHT22;24661;53.566;9.910;2023-09-19T14:49:38;19.60;99.90
38902;DHT22;24661;53.566;9.910;2023-09-19T14:52:07;19.70;99.90
38902;DHT22;24661;53.566;9.910;2023-09-19T14:54:33;19.60;99.90
38902;DHT22;24661;53.566;9.910;2023-09-19T14:56:59;19.50;99.90
38902;DHT22;24661;53.566;9.910;2023-09-19T14:59:33;19.50;99.90
38902;DHT22;24661;53.566;9.910;2023-09-19T15:02:05;19.40;99.90
38902;DHT22;24661;53.566;9.910;2023-09-19T15:04:31;19.40;99.90
38902;DHT22;24661;53.566;9.910;2023-09-19T15:06:56;19.50;99.90
38902;DHT22;24661;53.566;9.910;2023-09-19T15:09:23;19.50;99.90
38902;DHT22;24661;53.566;9.910;2023-09-19T15:11:55;19.40;99.90
38902;DHT22;24661;53.566;9.910;2023-09-19T15:14:21;19.30;99.90
38902;DHT22;24661;53.566;9.910;2023-09-19T15:16:48;19.20;99.90
38902;DHT22;24661;53.566;9.910;2023-09-19T15:19:14;19.20;99.90
38902;DHT22;24661;53.566;9.910;2023-09-19T15:21:40;19.10;99.90
38902;DHT22;24661;53.566;9.910;2023-09-19T15:24:07;19.10;99.90
38902;DHT22;24661;53.566;9.910;2023-09-19T15:26:38;19.20;99.90
38902;DHT22;24661;53.566;9.910;2023-09-19T15:29:09;19.20;99.90
38902;DHT22;24661;53.566;9.910;2023-09-19T15:31:35;19.20;99.90
38902;DHT22;24661;53.566;9.910;2023-09-19T15:34:02;19.20;99.90
38902;DHT22;24661;53.566;9.910;2023-09-19T15:36:28;19.20;99.90
38902;DHT22;24661;53.566;9.910;2023-09-19T15:38:58;19.20;99.90
38902;DHT22;24661;53.566;9.910;2023-09-19T15:41:33;19.20;99.90
38902;DHT22;24661;53.566;9.910;2023-09-19T15:44:00;19.20;99.90
38902;DHT22;24661;53.566;9.910;2023-09-19T15:46:30;19.20;99.90
38902;DHT22;24661;53.566;9.910;2023-09-19T15:48:56;19.10;99.90
38902;DHT22;24661;53.566;9.910;2023-09-19T15:51:22;19.10;99.90
38902;DHT22;24661;53.566;9.910;2023-09-19T15:53:50;19.00;99.90
38902;DHT22;24661;53.566;9.910;2023-09-19T15:56:17;19.20;99.90
38902;DHT22;24661;53.566;9.910;2023-09-19T15:58:47;19.00;99.90
38902;DHT22;24661;53.566;9.910;2023-09-19T16:01:13;19.00;99.90
38902;DHT22;24661;53.566;9.910;2023-09-19T16:03:42;19.00;99.90
38902;DHT22;24661;53.566;9.910;2023-09-19T16:06:13;18.90;99.90
38902;DHT22;24661;53.566;9.910;2023-09-19T16:08:43;18.90;99.90
38902;DHT22;24661;53.566;9.910;2023-09-19T16:11:10;18.90;99.90
38902;DHT22;24661;53.566;9.910;2023-09-19T16:13:37;18.80;99.90
38902;DHT22;24661;53.566;9.910;2023-09-19T16:16:03;18.80;99.90
38902;DHT22;24661;53.566;9.910;2023-09-19T16:18:29;18.80;99.90
38902;DHT22;24661;53.566;9.910;2023-09-19T16:21:05;18.80;99.90
38902;DHT22;24661;53.566;9.910;2023-09-19T16:23:33;18.80;99.90
38902;DHT22;24661;53.566;9.910;2023-09-19T16:26:07;18.80;99.90
38902;DHT22;24661;53.566;9.910;2023-09-19T16:28:34;18.70;99.90
38902;DHT22;24661;53.566;9.910;2023-09-19T16:31:03;18.70;99.90
38902;DHT22;24661;53.566;9.910;2023-09-19T16:33:31;18.70;99.90
38902;DHT22;24661;53.566;9.910;2023-09-19T16:35:57;18.70;99.90
38902;DHT22;24661;53.566;9.910;2023-09-19T16:38:24;18.60;99.90
38902;DHT22;24661;53.566;9.910;2023-09-19T16:40:55;18.70;99.90